Raleigh, NC

2:04 AM EST on November 26, 2014 (GMT -0500)
Williams | Change Station
CLOSE
Current Station
Airport
Location: Chapel Hill,
Elevation: 512 ft
Nearby Weather Stations

Elev 512 ft 35.93 °N, 79.06 °W | Updated 8 minutes ago

Rain
Rain
49 °F
Feels Like 49 °F
N
6
Wind Variable Wind from Variable

Today
High -- | Low -- °F
--% Chance of Precip.
Yesterday
High -- | Low -- °F
Precip. -- in
7:01 AM 5:02 PM
Waxing Crescent, 17% visible
Pressure 29.97 in
Visibility 3.0 miles
Clouds Few 500 ft
Overcast 3100 ft
Dew Point 47 °F
Humidity 93%
Rainfall 0.23 in
Snow Depth Not available.
UV 0 out of 12
Pollen .80 out of 12
Air Quality Not available.
Flu Activity Not available.
METAR KIGX 260656Z AUTO VRB05KT 3SM RA BR FEW005 OVC031 09/08 A2998 RMK AO2 SLP148 P0018 T00940083

More Conditions Fewer Conditions

Pressure 29.97 in
Visibility 3.0 miles
Clouds Few 500 ft
Overcast 3100 ft
Dew Point 47 °F
Humidity 93%
Rainfall 0.23 in
Snow Depth Not available.
UV 0 out of 12
Pollen .80 out of 12
Air Quality Not available.
Flu Activity Not available.
METAR KIGX 260656Z AUTO VRB05KT 3SM RA BR FEW005 OVC031 09/08 A2998 RMK AO2 SLP148 P0018 T00940083

More Conditions Fewer Conditions

10-Day Weather Forecast

Almanac

Astronomy

Nov. 26, 2014 Rise Set
Actual Time
Civil Twilight
Nautical Twilight
Astronomical Twilight
Moon
Length of Visible Light
Length of Day
Tomorrow will be .
, % of the Moon is Illuminated

Today's Extremes

State Highs State Lows

Community

WunderPhotos

Upload Photos

1,773,694 photos uploaded!

WunderBlogs® & News

Nearby

Air Quality

  Air Quality AQ Index Pollutant
Not available.

Snow Depth

Station Depth Elevation

Earthquake Activity

City Distance Mag. Time & Date
Minimum magnitude displayed is 2.5.

Coastal Water Temperatures

Place Temperature

Nearby Weather Stations